Airfield :







YOU CAN JOIN US ON...

 
LOGIN :

Register | Disclaimer

   EN    FR    IT 

 









Legend :    VFR   Marginal VFR   IFR   Intensive IFR   Very Intensive IFR
Visi :
Ceiling :
>= 8 km
>= 3000ft
5 to 8 km
1000 to 3000 ft
1500m to 5 km
500 to 1000 ft
800 to 1500m
200 to 500 ft
< 800m
< 200 ft
Symbols :   Thunderstorms  Fog  Heavy snow  Heavy precipitations  Wind > 20 kt






- Airport Elevation : 192 ft
- IATA code : BGR


KBGR - Bangor International

CURRENT METAR :
  • 010153Z 15024G36KT 4SM RA BR BKN015 BKN021 OVC034 13/11 A2979 RMK AO2 PK WND 14038/0125 SLP087 P0018 T01280111

EXPIRED METARs :
  • 010114Z 14022G30KT 4SM RA BR SCT014 BKN023 OVC034 13/11 A2980 RMK AO2 PK WND 15034/0059 PRESFR P0008 T01280111
  • 010053Z 14021G30KT 4SM +RA BR BKN014 OVC022 12/11 A2982 RMK AO2 PK WND 16035/0012 SLP099 P0018 T01220106
  • 010012Z 15023G35KT 5SM RA BR BKN015 BKN024 OVC049 13/11 A2986 RMK AO2 PK WND 16035/0012 P0005 T01280106
  • 010001Z 14023G31KT 4SM RA BR BKN013 OVC020 12/11 A2987 RMK AO2 PK WND 15031/0001 P0002 T01220106
  • 302353Z 15020G32KT 4SM RA BR SCT011 BKN017 OVC023 12/11 A2987 RMK AO2 PK WND 14032/2313 SLP117 P0016 60048 T01220106 10122 20100 56028

TAF KBGR
Valid from the 01 at 00:00 until the 02 at 00:00 UTC


302320Z 0100/0124 14022G32KT 2SM +RA OVC008 WS020/15055KT
FM010600 16022G40KT 2SM RA OVC008 WS020/17065KT
FM011400 16012G22KT 4SM -RA BR OVC005 WS020/17050KT
FM012200 16010KT 5SM -SHRA SCT005 OVC012
KZBW FIR / North America



MET'MAP, your aeronautical weather chart ! - Copyright ORBIFLY December 2007 - Disclaimer

ORBIFLY MET'MAP TEAM :

Programming & Development : Alexandra Zaïnal
Concept & original design : Baudouin d'Aumeries
Assistance for programming : Marc-Olivier Méhu
Technical & hardware support : Manuel Goepfert

Contact : metmap@orbifly.com




SOURCES & CREDITS :

   NOAA